This is the latest recevied weather packets stored in our database for station/object DK2OO-6. If no packets are shown the sender has not sent any weather packets the latest 10 day(s).
| Time | Temp. | Humidity | Pressure | Rain* | Wind** | Luminosity | Snow |
|---|---|---|---|---|---|---|---|
| 1788592806 | 16.67° C | 79% | 1015.6 hPa | 0 mm | - | - | - |
| 1788592200 | 16.11° C | 79% | 1015.6 hPa | 0 mm | - | - | - |
| 1788591595 | 16.11° C | 79% | 1015.7 hPa | 0 mm | - | - | - |
| 1788589785 | 15.56° C | 79% | 1015.3 hPa | 0 mm | - | - | - |
| 1788588574 | 15° C | 79% | 1015.2 hPa | 0 mm | - | - | - |
| 1788565017 | 20° C | 65% | 1010.7 hPa | 0 mm | - | - | - |
| 1788559575 | 19.44° C | 64% | 1010.1 hPa | 0 mm | - | - | - |
| 1788557146 | 20.56° C | 61% | 1010 hPa | 0 mm | - | - | - |
| 1788554132 | 21.67° C | 54% | 1009.8 hPa | 0 mm | - | - | - |
| 1788550500 | 23.33° C | 50% | 1009.2 hPa | 0 mm | - | - | - |
| 1788546270 | 25.56° C | 45% | 1009 hPa | 0 mm | - | - | - |
| 1788544459 | 26.67° C | 43% | 1008.6 hPa | 0 mm | - | - | - |
| 1788536003 | 28.89° C | 39% | 1008.5 hPa | 0 mm | - | - | - |
| 1788531773 | 29.44° C | 44% | 1008.7 hPa | 93.22 mm | - | - | - |
| 1788528749 | 28.89° C | 45% | 1009.4 hPa | 0 mm | - | - | - |
| 1788523913 | 28.33° C | 46% | 1010.5 hPa | 0 mm | - | - | - |
| 1788523304 | 28.33° C | 47% | 1010.5 hPa | 0 mm | - | - | - |
| 1788522701 | 27.78° C | 47% | 1010.8 hPa | 0 mm | - | - | - |
| 1788517857 | 26.11° C | 52% | 1012 hPa | 0 mm | - | - | - |
| 1788517248 | 26.11° C | 53% | 1012 hPa | 0 mm | - | - | - |
| 1788516648 | 25.56° C | 54% | 1012.5 hPa | 0 mm | - | - | - |
| 1788514232 | 24.44° C | 59% | 1013 hPa | 0 mm | - | - | - |
| 1788513020 | 23.33° C | 62% | 1013.1 hPa | 0 mm | - | - | - |
| 1788508800 | 18.33° C | 72% | 1013.8 hPa | 0 mm | - | - | - |
| 1788506987 | 17.78° C | 73% | 1014.1 hPa | 0 mm | - | - | - |
* Rain latest hour (hover to see other rain measurements)
** Current wind speed in m/s (hover to see current wind gust speed)